Metar Aviation Weather Data KPWM

66°F Temp
63°F Dewpoint
% Humidity
Temperature
6 MPH
10 KM/H
5 KTS
170°
Due South

Wind Speed
Mostly Scattered
Clouds
Pressure 1009.82 (hPa) - 29.82 (in)
Visibility 8.0 (mi) - 13 (km)

Current Conditions
KPWM
Metar :KPWM 162251Z 17005KT 8SM SCT004 OVC035 19/17 A2982 RMK AO2 SLP098 T01890172
Sun 16th June 18:51 pm

  Metar Aviation API Data Provided by https://www.checkwx.com/ PHP scripts by weather34.com ©2019